createdAt,value
2017-11-13T00:00:04.317Z,0
2017-11-13T00:05:02.738Z,0
2017-11-13T00:10:02.822Z,0
2017-11-13T00:15:02.488Z,0
2017-11-13T00:20:03.214Z,0
2017-11-13T00:25:02.714Z,0
2017-11-13T00:30:03.377Z,0
2017-11-13T00:35:03.098Z,0
2017-11-13T00:40:02.705Z,0
2017-11-13T00:45:03.208Z,0
2017-11-13T00:50:02.677Z,0
2017-11-13T00:55:03.209Z,0
2017-11-13T01:00:02.820Z,0
2017-11-13T01:05:02.820Z,0
2017-11-13T01:10:02.584Z,0
2017-11-13T01:15:03.289Z,0
2017-11-13T01:20:02.905Z,0
2017-11-13T01:25:02.646Z,0
2017-11-13T01:30:03.313Z,0
2017-11-13T01:35:02.992Z,0
2017-11-13T01:40:02.513Z,0
2017-11-13T01:45:03.113Z,0
2017-11-13T01:50:02.676Z,0
2017-11-13T01:55:03.345Z,0
2017-11-13T02:00:02.944Z,0
2017-11-13T02:05:02.556Z,0
2017-11-13T02:10:03.229Z,0
2017-11-13T02:15:02.636Z,0
2017-11-13T02:20:03.302Z,0
2017-11-13T02:25:02.841Z,0
2017-11-13T02:30:03.307Z,0
2017-11-13T02:35:02.883Z,0
2017-11-13T02:40:02.618Z,0
2017-11-13T02:45:03.105Z,0
2017-11-13T02:50:02.827Z,0
2017-11-13T02:55:03.356Z,0
2017-11-13T03:00:03.049Z,0
2017-11-13T03:05:02.743Z,0
2017-11-13T03:10:02.539Z,0
2017-11-13T03:15:03.097Z,0
2017-11-13T03:20:02.818Z,0
2017-11-13T03:25:02.517Z,0
2017-11-13T03:30:03.225Z,0
2017-11-13T03:35:02.806Z,0
2017-11-13T03:40:02.530Z,0
2017-11-13T03:45:03.174Z,0
2017-11-13T03:50:02.756Z,0
2017-11-13T03:55:03.274Z,0
2017-11-13T04:00:02.786Z,0
2017-11-13T04:05:02.566Z,0
2017-11-13T04:10:03.129Z,0
2017-11-13T04:15:02.868Z,0
2017-11-13T04:20:02.564Z,0
2017-11-13T04:25:03.234Z,0
2017-11-13T04:30:02.783Z,0
2017-11-13T04:35:03.345Z,0
2017-11-13T04:40:03.107Z,0
2017-11-13T04:45:02.714Z,0
2017-11-13T04:50:03.402Z,0
2017-11-13T04:55:02.837Z,0
2017-11-13T05:00:03.289Z,0
2017-11-13T05:05:02.772Z,0
2017-11-13T05:10:03.471Z,0
2017-11-13T05:15:03.211Z,0
2017-11-13T05:20:02.779Z,0
2017-11-13T05:25:03.400Z,0
2017-11-13T05:30:02.637Z,0
2017-11-13T05:35:03.338Z,0
2017-11-13T05:40:03.005Z,0
2017-11-13T05:45:02.747Z,0
2017-11-13T05:50:03.253Z,0
2017-11-13T05:55:02.797Z,0
2017-11-13T06:00:03.383Z,0
2017-11-13T06:05:02.983Z,0
2017-11-13T06:10:02.471Z,0
2017-11-13T06:15:03.133Z,0
2017-11-13T06:20:02.619Z,1
2017-11-13T06:25:03.124Z,3
2017-11-13T06:35:03.274Z,30
2017-11-13T06:40:02.909Z,57
2017-11-13T06:45:02.519Z,72
2017-11-13T06:50:03.212Z,96
2017-11-13T06:55:02.844Z,131
2017-11-13T07:00:02.568Z,291
2017-11-13T07:05:03.241Z,379
2017-11-13T07:10:02.942Z,491
2017-11-13T07:15:03.419Z,599
2017-11-13T07:20:03.099Z,721
2017-11-13T07:25:02.610Z,781
2017-11-13T07:30:03.167Z,1000
2017-11-13T07:35:02.608Z,1000
2017-11-13T07:40:03.286Z,1000
2017-11-13T07:45:02.897Z,1000
2017-11-13T07:50:02.667Z,1000
2017-11-13T07:55:03.216Z,1000
2017-11-13T08:00:02.885Z,1000
2017-11-13T08:05:02.569Z,2000
2017-11-13T08:10:03.164Z,2000
2017-11-13T08:15:02.683Z,2000
2017-11-13T08:20:03.287Z,2000
2017-11-13T08:25:02.936Z,2000
2017-11-13T08:30:02.688Z,2000
2017-11-13T08:35:03.245Z,3000
2017-11-13T08:40:02.830Z,3000
2017-11-13T08:45:03.372Z,3000
2017-11-13T08:50:02.820Z,18000
2017-11-13T08:55:03.339Z,21000
2017-11-13T09:00:02.851Z,23000
2017-11-13T09:05:02.574Z,26000
2017-11-13T09:10:03.272Z,6000
2017-11-13T09:15:02.877Z,27000
2017-11-13T09:20:02.596Z,24000
2017-11-13T09:25:03.305Z,24000
2017-11-13T09:30:02.764Z,28000
2017-11-13T09:35:03.487Z,28000
2017-11-13T09:40:03.081Z,28000
2017-11-13T09:45:02.803Z,28000
2017-11-13T09:50:03.720Z,29000
2017-11-13T09:55:03.403Z,30000
2017-11-13T10:00:03.186Z,29000
2017-11-13T10:05:03.095Z,29000
2017-11-13T10:10:02.765Z,30000
2017-11-13T10:15:02.504Z,30000
2017-11-13T10:20:03.353Z,30000
2017-11-13T10:25:03.066Z,29000
2017-11-13T10:30:02.867Z,28000
2017-11-13T10:35:02.493Z,27000
2017-11-13T10:40:03.237Z,20000
2017-11-13T10:45:02.901Z,18000
2017-11-13T10:50:02.824Z,31000
2017-11-13T10:55:03.452Z,22000
2017-11-13T11:00:03.259Z,7000
2017-11-13T11:05:03.319Z,3000
2017-11-13T11:10:03.051Z,19000
2017-11-13T11:15:02.628Z,13000
2017-11-13T11:20:03.464Z,10000
2017-11-13T11:25:03.290Z,5000
2017-11-13T11:30:03.153Z,6000
2017-11-13T11:35:02.895Z,5000
2017-11-13T11:40:02.800Z,5000
2017-11-13T11:45:03.417Z,4000
2017-11-13T11:50:03.313Z,8000
2017-11-13T11:55:03.054Z,6000
2017-11-13T12:00:02.780Z,4000
2017-11-13T12:05:02.645Z,4000
2017-11-13T12:10:03.447Z,4000
2017-11-13T12:15:03.327Z,5000
2017-11-13T12:20:03.143Z,4000
2017-11-13T12:25:02.931Z,4000
2017-11-13T12:30:02.789Z,4000
2017-11-13T12:35:03.522Z,3000
2017-11-13T12:40:03.397Z,3000
2017-11-13T12:45:03.309Z,3000
2017-11-13T12:50:03.053Z,3000
2017-11-13T12:55:02.763Z,3000
2017-11-13T13:00:02.663Z,3000
2017-11-13T13:05:02.664Z,3000
2017-11-13T13:10:03.380Z,3000
2017-11-13T13:15:03.261Z,3000
2017-11-13T13:20:02.917Z,3000
2017-11-13T13:25:02.764Z,3000
2017-11-13T13:30:02.633Z,3000
2017-11-13T13:35:03.441Z,3000
2017-11-13T13:40:03.391Z,3000
2017-11-13T13:45:03.276Z,2000
2017-11-13T13:50:03.161Z,6000
2017-11-13T13:55:02.977Z,3000
2017-11-13T14:00:02.886Z,4000
2017-11-13T14:05:02.875Z,4000
2017-11-13T14:10:02.660Z,5000
2017-11-13T14:15:02.592Z,4000
2017-11-13T14:20:03.495Z,5000
2017-11-13T14:25:03.169Z,1000
2017-11-13T14:30:03.009Z,1000
2017-11-13T14:35:02.836Z,1000
2017-11-13T14:40:02.735Z,1000
2017-11-13T14:45:02.599Z,1000
2017-11-13T14:50:02.538Z,1000
2017-11-13T14:55:03.223Z,1000
2017-11-13T15:00:02.893Z,1000
2017-11-13T15:05:02.772Z,1000
2017-11-13T15:10:02.583Z,1000
2017-11-13T15:15:03.123Z,900
2017-11-13T15:20:02.836Z,766
2017-11-13T15:25:03.417Z,503
2017-11-13T15:30:02.897Z,407
2017-11-13T15:35:03.430Z,347
2017-11-13T15:40:02.928Z,286
2017-11-13T15:45:03.435Z,164
2017-11-13T15:50:03.107Z,96
2017-11-13T15:55:02.618Z,69
2017-11-13T16:00:03.157Z,63
2017-11-13T16:05:02.678Z,37
2017-11-13T16:10:03.324Z,22
2017-11-13T16:15:02.874Z,9
2017-11-13T16:20:02.566Z,3
2017-11-13T16:25:03.103Z,1
2017-11-13T16:30:02.635Z,0
2017-11-13T16:35:03.267Z,0
2017-11-13T16:40:02.800Z,0
2017-11-13T16:45:03.315Z,0
2017-11-13T16:50:02.802Z,0
2017-11-13T16:55:03.316Z,0
2017-11-13T17:00:03.030Z,0
2017-11-13T17:05:02.698Z,0
2017-11-13T17:10:03.371Z,0
2017-11-13T17:15:03.032Z,0
2017-11-13T17:20:02.661Z,0
2017-11-13T17:25:03.187Z,0
2017-11-13T17:30:02.758Z,0
2017-11-13T17:35:03.429Z,0
2017-11-13T17:40:02.884Z,0
2017-11-13T17:45:02.535Z,0
2017-11-13T17:50:03.089Z,0
2017-11-13T17:55:02.582Z,0
2017-11-13T18:00:03.251Z,0
2017-11-13T18:05:02.778Z,0
2017-11-13T18:10:03.414Z,0
2017-11-13T18:15:03.045Z,0
2017-11-13T18:20:02.804Z,0
2017-11-13T18:25:02.536Z,0
2017-11-13T18:30:03.056Z,0
2017-11-13T18:35:02.739Z,0
2017-11-13T18:40:03.286Z,0
2017-11-13T18:45:02.745Z,0
2017-11-13T18:50:02.480Z,0
2017-11-13T18:55:03.123Z,0
2017-11-13T19:00:02.771Z,0
2017-11-13T19:05:02.513Z,0
2017-11-13T19:10:03.206Z,0
2017-11-13T19:15:02.705Z,0
2017-11-13T19:20:03.392Z,0
2017-11-13T19:25:02.898Z,0
2017-11-13T19:30:02.544Z,0
2017-11-13T19:35:03.328Z,0
2017-11-13T19:40:03.057Z,0
2017-11-13T19:45:02.803Z,0
2017-11-13T19:50:03.361Z,0
2017-11-13T19:55:02.911Z,0
2017-11-13T20:00:03.443Z,0
2017-11-13T20:05:02.977Z,0
2017-11-13T20:10:02.516Z,0
2017-11-13T20:15:03.000Z,0
2017-11-13T20:20:02.697Z,0
2017-11-13T20:25:03.165Z,0
2017-11-13T20:30:02.781Z,0
2017-11-13T20:40:03.201Z,0
2017-11-13T20:45:03.438Z,0
2017-11-13T20:50:03.039Z,0
2017-11-13T20:55:02.651Z,0
2017-11-13T21:00:03.147Z,0
2017-11-13T21:05:02.793Z,0
2017-11-13T21:10:03.368Z,0
2017-11-13T21:15:02.800Z,0
2017-11-13T21:20:03.439Z,0
2017-11-13T21:25:02.948Z,0
2017-11-13T21:30:03.462Z,0
2017-11-13T21:35:03.211Z,0
2017-11-13T21:40:02.905Z,0
2017-11-13T21:45:03.470Z,0
2017-11-13T21:50:03.177Z,0
2017-11-13T21:55:02.843Z,0
2017-11-13T22:00:03.524Z,0
2017-11-13T22:05:03.071Z,0
2017-11-13T22:10:02.789Z,0
2017-11-13T22:15:03.437Z,0
2017-11-13T22:20:03.199Z,0
2017-11-13T22:25:02.862Z,0
2017-11-13T22:30:03.686Z,0
2017-11-13T22:35:03.263Z,0
2017-11-13T22:40:02.850Z,0
2017-11-13T22:45:03.395Z,0
2017-11-13T22:50:03.056Z,0
2017-11-13T22:55:02.788Z,0
2017-11-13T23:00:03.423Z,0
2017-11-13T23:05:03.077Z,0
2017-11-13T23:10:02.669Z,0
2017-11-13T23:15:03.317Z,0
2017-11-13T23:20:02.799Z,0
2017-11-13T23:25:02.589Z,0
2017-11-13T23:30:03.152Z,0
2017-11-13T23:35:02.789Z,0
2017-11-13T23:40:03.333Z,0
2017-11-13T23:45:02.943Z,0
2017-11-13T23:50:02.659Z,0
2017-11-13T23:55:03.332Z,0
